VOI370 MMMX-MMAA
Flight info
| Callsign | VOI370 |
|---|---|
| Flight time | 0h 35m |
| Altitude | 22000 |
| Route | TEVOS2A TEVOS UT116 ANALU ANALU1B |
| Aircraft | A321/M-SDE3FGHIRWY/LB1 |
Departure
| Time | 2026-05-01 07:39 |
|---|---|
| Airport | Mexico City Benito Juárez International Airport (MMMX) |
Arrival
| Time | 2026-05-01 08:14 |
|---|---|
| Airport | General Juan N. Álvarez International Airport (MMAA) |
| Time | Latitude | Longitude | Altitude | Speed | Heading |
|---|---|---|---|---|---|
| 2026-05-01 07:23 | 19.43688 | -99.07755 | 7303 ft | 0 kts | 348° |
| 2026-05-01 07:29 | 19.43666 | -99.07750 | 7303 ft | 4 kts | 347° |
| 2026-05-01 07:29 | 19.43644 | -99.07745 | 7303 ft | 4 kts | 1° |
| 2026-05-01 07:29 | 19.43621 | -99.07752 | 7303 ft | 4 kts | 48° |
| 2026-05-01 07:30 | 19.43610 | -99.07767 | 7303 ft | 0 kts | 59° |
| 2026-05-01 07:33 | 19.43622 | -99.07758 | 7303 ft | 5 kts | 27° |
| 2026-05-01 07:34 | 19.43640 | -99.07782 | 7303 ft | 5 kts | 244° |
| 2026-05-01 07:34 | 19.43554 | -99.07867 | 7303 ft | 15 kts | 241° |
| 2026-05-01 07:34 | 19.43495 | -99.07969 | 7303 ft | 18 kts | 239° |
| 2026-05-01 07:35 | 19.43428 | -99.08090 | 7303 ft | 20 kts | 241° |
| 2026-05-01 07:35 | 19.43353 | -99.08225 | 7303 ft | 22 kts | 239° |
| 2026-05-01 07:35 | 19.43269 | -99.08373 | 7303 ft | 24 kts | 239° |
| 2026-05-01 07:35 | 19.43179 | -99.08534 | 7303 ft | 26 kts | 239° |
| 2026-05-01 07:36 | 19.43088 | -99.08695 | 7303 ft | 17 kts | 239° |
| 2026-05-01 07:36 | 19.43005 | -99.08719 | 7303 ft | 14 kts | 175° |
| 2026-05-01 07:36 | 19.42898 | -99.08688 | 7303 ft | 17 kts | 157° |
| 2026-05-01 07:36 | 19.42803 | -99.08627 | 7303 ft | 14 kts | 148° |
| 2026-05-01 07:37 | 19.42777 | -99.08448 | 7303 ft | 7 kts | 60° |
| 2026-05-01 07:37 | 19.42806 | -99.08395 | 7303 ft | 9 kts | 59° |
| 2026-05-01 07:37 | 19.42845 | -99.08327 | 7303 ft | 12 kts | 59° |
| 2026-05-01 07:38 | 19.42876 | -99.08273 | 7304 ft | 17 kts | 59° |
| 2026-05-01 07:38 | 19.43059 | -99.07949 | 7305 ft | 85 kts | 59° |
| 2026-05-01 07:38 | 19.44071 | -99.06145 | 7308 ft | 191 kts | 59° |
| 2026-05-01 07:39 | 19.44782 | -99.04901 | 7760 ft | 202 kts | 58° |
| 2026-05-01 07:39 | 19.45536 | -99.03645 | 8831 ft | 203 kts | 58° |
| 2026-05-01 07:39 | 19.47174 | -99.00949 | 9623 ft | 241 kts | 58° |
| 2026-05-01 07:40 | 19.48118 | -98.99379 | 9704 ft | 263 kts | 58° |
| 2026-05-01 07:40 | 19.49124 | -98.97692 | 9764 ft | 276 kts | 59° |
| 2026-05-01 07:40 | 19.49824 | -98.95803 | 10091 ft | 279 kts | 87° |
| 2026-05-01 07:40 | 19.49472 | -98.93818 | 10493 ft | 278 kts | 121° |
| 2026-05-01 07:41 | 19.48215 | -98.92290 | 10946 ft | 277 kts | 143° |
| 2026-05-01 07:41 | 19.46612 | -98.91143 | 11426 ft | 279 kts | 150° |
| 2026-05-01 07:41 | 19.43215 | -98.89082 | 12396 ft | 284 kts | 150° |
| 2026-05-01 07:42 | 19.41521 | -98.87983 | 12877 ft | 287 kts | 148° |
| 2026-05-01 07:42 | 19.39838 | -98.86819 | 13354 ft | 290 kts | 146° |
| 2026-05-01 07:42 | 19.38167 | -98.85607 | 13845 ft | 293 kts | 145° |
| 2026-05-01 07:42 | 19.36495 | -98.84358 | 14246 ft | 295 kts | 145° |
| 2026-05-01 07:43 | 19.34819 | -98.83088 | 14657 ft | 298 kts | 146° |
| 2026-05-01 07:43 | 19.32964 | -98.82118 | 15052 ft | 299 kts | 167° |
| 2026-05-01 07:43 | 19.28636 | -98.82075 | 15309 ft | 327 kts | 184° |
| 2026-05-01 07:44 | 19.23885 | -98.82389 | 15506 ft | 356 kts | 184° |
| 2026-05-01 07:44 | 19.18830 | -98.82714 | 16131 ft | 368 kts | 184° |
| 2026-05-01 07:45 | 19.16270 | -98.82871 | 16563 ft | 370 kts | 184° |
| 2026-05-01 07:45 | 19.13695 | -98.83025 | 17029 ft | 372 kts | 184° |
| 2026-05-01 07:45 | 19.11102 | -98.83176 | 17497 ft | 374 kts | 183° |
| 2026-05-01 07:45 | 19.08497 | -98.83326 | 17964 ft | 376 kts | 184° |
| 2026-05-01 07:46 | 19.05884 | -98.83479 | 18367 ft | 378 kts | 184° |
| 2026-05-01 07:46 | 19.03253 | -98.83633 | 18757 ft | 380 kts | 184° |
| 2026-05-01 07:46 | 18.97987 | -98.83944 | 19556 ft | 383 kts | 183° |
| 2026-05-01 07:47 | 18.95281 | -98.84105 | 19962 ft | 385 kts | 183° |
| 2026-05-01 07:47 | 18.92649 | -98.84402 | 20335 ft | 387 kts | 188° |
| 2026-05-01 07:47 | 18.89945 | -98.84834 | 20716 ft | 389 kts | 188° |
| 2026-05-01 07:47 | 18.87289 | -98.85260 | 21056 ft | 392 kts | 188° |
| 2026-05-01 07:48 | 18.81871 | -98.86128 | 21470 ft | 390 kts | 188° |
| 2026-05-01 07:48 | 18.79246 | -98.86547 | 21482 ft | 376 kts | 188° |
| 2026-05-01 07:48 | 18.76673 | -98.86957 | 21470 ft | 373 kts | 188° |
| 2026-05-01 07:49 | 18.74114 | -98.87364 | 21472 ft | 372 kts | 188° |
| 2026-05-01 07:49 | 18.68999 | -98.88182 | 21470 ft | 371 kts | 188° |
| 2026-05-01 07:49 | 18.66446 | -98.88589 | 21470 ft | 371 kts | 188° |
| 2026-05-01 07:50 | 18.63889 | -98.88995 | 21473 ft | 371 kts | 188° |
| 2026-05-01 07:50 | 18.58777 | -98.89802 | 21473 ft | 372 kts | 188° |
| 2026-05-01 07:50 | 18.56216 | -98.90208 | 21475 ft | 372 kts | 188° |
| 2026-05-01 07:51 | 18.53659 | -98.90614 | 21472 ft | 372 kts | 187° |
| 2026-05-01 07:51 | 18.51098 | -98.91023 | 21471 ft | 373 kts | 187° |
| 2026-05-01 07:51 | 18.48530 | -98.91435 | 21473 ft | 373 kts | 187° |
| 2026-05-01 07:52 | 18.43403 | -98.92282 | 21475 ft | 373 kts | 191° |
| 2026-05-01 07:52 | 18.40922 | -98.93092 | 21474 ft | 374 kts | 200° |
| 2026-05-01 07:52 | 18.38495 | -98.94081 | 21474 ft | 374 kts | 200° |
| 2026-05-01 07:53 | 18.33628 | -98.96065 | 21490 ft | 375 kts | 200° |
| 2026-05-01 07:53 | 18.31202 | -98.97055 | 21491 ft | 375 kts | 200° |
| 2026-05-01 07:53 | 18.28770 | -98.98044 | 21492 ft | 375 kts | 200° |
| 2026-05-01 07:53 | 18.26336 | -98.99030 | 21493 ft | 375 kts | 200° |
| 2026-05-01 07:54 | 18.21464 | -99.00994 | 21526 ft | 375 kts | 200° |
| 2026-05-01 07:55 | 18.14167 | -99.03945 | 21521 ft | 375 kts | 200° |
| 2026-05-01 07:55 | 18.09300 | -99.05913 | 21519 ft | 374 kts | 200° |
| 2026-05-01 07:56 | 18.02003 | -99.08857 | 21518 ft | 375 kts | 200° |
| 2026-05-01 07:56 | 17.97138 | -99.10823 | 21517 ft | 375 kts | 199° |
| 2026-05-01 07:57 | 17.94706 | -99.11803 | 21521 ft | 375 kts | 199° |
| 2026-05-01 07:57 | 17.89834 | -99.13773 | 21556 ft | 375 kts | 200° |
| 2026-05-01 07:58 | 17.84961 | -99.15744 | 21557 ft | 375 kts | 199° |
| 2026-05-01 07:58 | 17.80089 | -99.17704 | 21600 ft | 375 kts | 199° |
| 2026-05-01 07:59 | 17.75297 | -99.19638 | 21010 ft | 365 kts | 199° |
| 2026-05-01 07:59 | 17.70595 | -99.21534 | 20211 ft | 359 kts | 199° |
| 2026-05-01 08:00 | 17.61621 | -99.25810 | 18724 ft | 351 kts | 207° |
| 2026-05-01 08:01 | 17.55261 | -99.29501 | 17529 ft | 346 kts | 207° |
| 2026-05-01 08:01 | 17.53157 | -99.30715 | 17105 ft | 344 kts | 207° |
| 2026-05-01 08:01 | 17.51067 | -99.31922 | 16706 ft | 343 kts | 207° |
| 2026-05-01 08:02 | 17.46707 | -99.33869 | 15850 ft | 339 kts | 195° |
| 2026-05-01 08:02 | 17.44458 | -99.34601 | 15449 ft | 338 kts | 195° |
| 2026-05-01 08:03 | 17.40004 | -99.36054 | 14690 ft | 336 kts | 195° |
| 2026-05-01 08:03 | 17.37749 | -99.36785 | 14325 ft | 335 kts | 195° |
| 2026-05-01 08:03 | 17.33314 | -99.38221 | 13619 ft | 332 kts | 195° |
| 2026-05-01 08:04 | 17.28952 | -99.39637 | 12820 ft | 329 kts | 196° |
| 2026-05-01 08:04 | 17.24582 | -99.41057 | 12089 ft | 325 kts | 196° |
| 2026-05-01 08:05 | 17.20293 | -99.42448 | 11389 ft | 320 kts | 197° |
| 2026-05-01 08:05 | 17.18175 | -99.43132 | 11070 ft | 317 kts | 197° |
| 2026-05-01 08:05 | 17.16074 | -99.43812 | 10753 ft | 314 kts | 197° |
| 2026-05-01 08:06 | 17.11969 | -99.45140 | 10515 ft | 308 kts | 197° |
| 2026-05-01 08:06 | 17.07884 | -99.46462 | 9773 ft | 307 kts | 198° |
| 2026-05-01 08:07 | 17.03825 | -99.47777 | 8974 ft | 305 kts | 198° |
| 2026-05-01 08:07 | 16.99786 | -99.49088 | 8192 ft | 303 kts | 199° |
| 2026-05-01 08:08 | 16.97777 | -99.49741 | 7804 ft | 302 kts | 199° |
| 2026-05-01 08:08 | 16.93786 | -99.51036 | 7041 ft | 299 kts | 199° |
| 2026-05-01 08:09 | 16.89826 | -99.52316 | 6303 ft | 297 kts | 199° |
| 2026-05-01 08:09 | 16.87860 | -99.52949 | 5912 ft | 295 kts | 199° |
| 2026-05-01 08:09 | 16.85900 | -99.53579 | 5517 ft | 294 kts | 199° |
| 2026-05-01 08:10 | 16.82035 | -99.54827 | 4744 ft | 292 kts | 199° |
| 2026-05-01 08:10 | 16.78143 | -99.56079 | 3961 ft | 290 kts | 199° |
| 2026-05-01 08:11 | 16.74655 | -99.57981 | 3198 ft | 284 kts | 225° |
| 2026-05-01 08:11 | 16.72610 | -99.61431 | 2207 ft | 273 kts | 256° |
| 2026-05-01 08:12 | 16.72516 | -99.65068 | 1634 ft | 233 kts | 283° |
| 2026-05-01 08:12 | 16.72956 | -99.66599 | 1331 ft | 214 kts | 288° |
| 2026-05-01 08:12 | 16.73794 | -99.69268 | 877 ft | 173 kts | 289° |
| 2026-05-01 08:13 | 16.74152 | -99.70407 | 643 ft | 153 kts | 288° |
| 2026-05-01 08:13 | 16.74466 | -99.71410 | 429 ft | 139 kts | 289° |
| 2026-05-01 08:13 | 16.75038 | -99.73236 | 94 ft | 129 kts | 289° |
| 2026-05-01 08:14 | 16.75298 | -99.74073 | 22 ft | 83 kts | 287° |
| 2026-05-01 08:14 | 16.75398 | -99.74406 | 23 ft | 40 kts | 287° |
| 2026-05-01 08:14 | 16.75488 | -99.74669 | 22 ft | 37 kts | 289° |
| 2026-05-01 08:14 | 16.75539 | -99.74837 | 22 ft | 36 kts | 287° |
| 2026-05-01 08:15 | 16.75677 | -99.75027 | 24 ft | 18 kts | 322° |
| 2026-05-01 08:15 | 16.75923 | -99.75149 | 22 ft | 29 kts | 337° |
| 2026-05-01 08:15 | 16.75993 | -99.75183 | 22 ft | 1 kts | 345° |
| 2026-05-01 08:16 | 16.76022 | -99.75252 | 22 ft | 23 kts | 274° |
| 2026-05-01 08:16 | 16.75997 | -99.75405 | 23 ft | 18 kts | 268° |
| 2026-05-01 08:16 | 16.76051 | -99.75486 | 23 ft | 12 kts | 338° |
| 2026-05-01 08:16 | 16.76076 | -99.75502 | 23 ft | 0 kts | 332° |
| 2026-05-01 08:17 | 16.76102 | -99.75499 | 24 ft | 4 kts | 14° |
| 2026-05-01 08:17 | 16.76109 | -99.75497 | 23 ft | 1 kts | 19° |
| 2026-05-01 08:17 | 16.76111 | -99.75496 | 22 ft | 1 kts | 18° |
| 2026-05-01 08:17 | 16.76115 | -99.75495 | 22 ft | 0 kts | 17° |